Pittsburgh, Pennsylvania
Current Conditions -  °F | °C
As of 5:53 AM on Friday 19 Dec 2014 (Local Time) from KAGC Reporting Station
Haze Haze  
Wind Chill: 17°   Ceiling: 1000
Heat Index: 27°   Visibility: 5mi
Dew Point: 22°   Wind: 10mph
Humidity: 81%   Direction: 260°W
Pressure: 30.13"   Gusts: NA
Location:  40.44°N, 80°W
Report Text: KAGC 191053Z 26009KT 5SM HZ OVC010 M03/M06 A3013 RMK AO2 CIG 008V013 SLP223 I1000 T10281056
Loading
Personal Weather Stations






























Interactive Weather Map New forecast layout! Learn more

10-Day Weather Forecast

Advertisements
Track Severe Weather on mobile